Terminal Aerodrome Forecast
Issued by NWS

Home | Current Version | Previous Version | Text Only | Print | Product List | Glossary On
Versions: 1 2 3 4 5 6 7 8 9 10 11 12 13 14 15 16 17 18 19 20 21 22 23 24 25 26 27 28 29 30 31 32 33 34 35
000
FTUS45 KSLC 120538
TAFLGU
TAF
KLGU 120538Z 1206/1306 VRB03KT 1SM BR BCFG OVC002
     FM120800 00000KT 1/2SM FZFG VV002
     FM121700 VRB03KT 2SM BR OVC003
     FM130200 VRB04KT 2SM BR OVC002=

USA.gov is the U.S. government's official web portal to all federal, state and local government web resources and services.